• Join FlightAware (Why Join?)
  • Login
  • US Flag 
08:17AM EST


 

Airport Tracker/Info


-or-


 

Live Flight TrackerFlight Track Log ✈ N855PT ✈ 19-Jul-2013 ✈ KHGR - KFRG

Flight Track Log - Related Links

Times and Time Zones

All times are in EDT time to prevent confusion due to time zone crossing. See the N855PT flight status page for this flight to view local times or setup timezone preferences in your user account.

Time Position Orientation Groundspeed Altitude Reporting Facility
EDT Latitude Longitude Course Direction KTS MPH feet Rate Location/Type
12:50PM 39.7481 -77.8856 43° Northeast 308 354 10,500  Level Washington Center
12:52PM 39.8972 -77.7064 43° Northeast 271 312 16,800 1,860 Climbing New York Center
12:53PM 39.9517 -77.5928 58° Northeast 355 409 17,000  Climbing New York Center
12:54PM 40.0408 -77.4575 49° Northeast 412 474 16,900 -60 Descending New York Center
12:55PM 40.1136 -77.3506 48° Northeast 440 506 16,900  Level New York Center
12:56PM 40.2047 -77.2097 50° Northeast 457 526 17,000  Climbing New York Center
12:57PM 40.2736 -77.0881 53° Northeast 457 526 16,900  Descending New York Center
12:58PM 40.3722 -76.9581 45° Northeast 457 526 17,000  Climbing New York Center
12:59PM 40.4644 -76.8708 36° Northeast 452 520 17,000  Level New York Center
01:00PM 40.5536 -76.7558 44° Northeast 443 510 17,000 240 Level New York Center
01:01PM 40.6331 -76.6261 51° Northeast 448 516 17,500 900 Climbing New York Center
01:02PM 40.7294 -76.4917 47° Northeast 454 522 18,900 720 Climbing New York Center
01:03PM 40.8186 -76.3675 46° Northeast 454 522 19,000  Climbing New York Center
01:04PM 40.9039 -76.2400 48° Northeast 462 532 19,000  Level New York Center
01:05PM 40.9867 -76.1119 49° Northeast 462 532 19,000  Level New York Center
01:06PM 41.0686 -76.0028 45° Northeast 468 539 19,000  Level New York Center
01:07PM 41.1683 -75.8672 46° Northeast 463 533 19,000  Level New York Center
01:08PM 41.2408 -75.7319 54° Northeast 456 525 19,000  Level New York Center
01:09PM 41.2369 -75.5689 92° East 424 488 19,000  Level New York Center
01:10PM 41.1903 -75.4361 115° Southeast 419 482 19,000  Level New York Center
01:11PM 41.1425 -75.2728 111° Southeast 425 489 19,000  Level New York Center
01:12PM 41.0958 -75.1267 113° Southeast 431 496 19,000  Level New York Center
01:13PM 41.0492 -74.9778 113° Southeast 436 502 19,000  Level New York Center
01:14PM 41.0172 -74.8219 105° East 436 502 19,000  Level New York Center
01:15PM 40.9872 -74.6606 104° East 444 511 19,100 -60 Climbing New York Center
01:16PM 40.9625 -74.5219 103° East 425 489 18,900 -60 Descending New York Center
01:17PM 40.9494 -74.4058 98° East 373 429 19,000  Climbing New York Center
01:18PM 40.9331 -74.2619 99° East 357 411 19,000  Level New York Center
01:19PM 40.9000 -74.1500 111° Southeast 360 414 19,100 -600 Climbing New York TRACON
01:20PM 40.8667 -74.0333 111° Southeast 360 414 18,000 -1,980 Descending New York TRACON
01:21PM 40.8167 -73.9167 119° Southeast 362 417 15,200 -2,460 Descending New York TRACON
01:22PM 40.7667 -73.8000 119° Southeast 346 398 13,100 -1,140 Descending New York TRACON
01:23PM 40.7333 -73.7000 114° Southeast 318 366 13,000  Descending New York TRACON
01:24PM 40.7000 -73.5833 111° Southeast 330 380 13,100 -480 Climbing New York TRACON
01:25PM 40.6333 -73.5167 143° Southeast 326 375 12,100 -1,620 Descending New York TRACON
01:26PM 40.5667 -73.4500 143° Southeast 317 365 9,900 -2,580 Descending New York TRACON
01:27PM 40.5167 -73.3667 128° Southeast 309 356 7,000 -2,400 Descending New York TRACON
01:28PM 40.5667 -73.3000 45° Northeast 285 328 5,100 -2,160 Descending New York TRACON
01:29PM 40.6333 -73.3167 349° North 273 314 2,700 -1,740 Descending New York TRACON
01:30PM 40.7000 -73.3500 339° North 236 272 1,700 -660 Descending New York TRACON
01:31PM 40.7500 -73.3667 346° North 194 223 1,400 -420 Descending New York TRACON
01:32PM 40.7667 -73.4000 303° West 157 181 900 -600 Descending New York TRACON
01:33PM 40.7500 -73.4167 217° Southwest 121 139 200 -720 Descending New York TRACON
01:35PM 40.7288 -73.4134 166° South  Level Estimated
01:42PM 40.7288 -73.4134 166° South  Level Estimated
01:43PM 40.7288 -73.4134 166° South  Level Estimated